createdAt,value
2018-04-16T00:00:59.681Z,79.02
2018-04-16T00:01:59.650Z,79.11
2018-04-16T00:02:59.624Z,79.40
2018-04-16T00:03:59.582Z,78.54
2018-04-16T00:04:59.548Z,78.64
2018-04-16T00:05:59.485Z,77.87
2018-04-16T00:06:59.483Z,77.87
2018-04-16T00:07:59.426Z,77.40
2018-04-16T00:08:59.388Z,76.92
2018-04-16T00:09:59.408Z,76.64
2018-04-16T00:10:59.324Z,76.54
2018-04-16T00:11:59.296Z,77.01
2018-04-16T00:12:59.235Z,77.11
2018-04-16T00:13:59.920Z,77.78
2018-04-16T00:14:59.186Z,77.78
2018-04-16T00:15:59.155Z,77.20
2018-04-16T00:16:59.099Z,77.78
2018-04-16T00:17:59.073Z,78.73
2018-04-16T00:18:59.055Z,80.35
2018-04-16T00:19:58.997Z,80.73
2018-04-16T00:20:58.984Z,80.64
2018-04-16T00:21:58.935Z,80.92
2018-04-16T00:22:58.895Z,81.06
2018-04-16T00:23:58.854Z,82.01
2018-04-16T00:24:58.845Z,81.35
2018-04-16T00:25:58.792Z,81.44
2018-04-16T00:26:58.728Z,81.25
2018-04-16T00:27:58.700Z,81.54
2018-04-16T00:28:58.723Z,81.40
2018-04-16T00:29:58.668Z,80.64
2018-04-16T00:30:58.620Z,80.49
2018-04-16T00:31:58.569Z,80.44
2018-04-16T00:32:59.420Z,80.64
2018-04-16T00:33:58.468Z,80.35
2018-04-16T00:34:58.578Z,80.35
2018-04-16T00:35:58.398Z,80.26
2018-04-16T00:36:58.399Z,80.35
2018-04-16T00:37:58.341Z,80.64
2018-04-16T00:38:58.287Z,81.21
2018-04-16T00:39:58.287Z,79.59
2018-04-16T00:40:58.259Z,78.92
2018-04-16T00:41:58.230Z,78.92
2018-04-16T00:42:58.158Z,79.49
2018-04-16T00:43:58.164Z,78.92
2018-04-16T00:44:58.083Z,79.11
2018-04-16T00:45:58.033Z,79.02
2018-04-16T00:46:58.036Z,79.21
2018-04-16T00:47:57.977Z,78.25
2018-04-16T00:48:58.424Z,77.97
2018-04-16T00:49:57.921Z,78.06
2018-04-16T00:50:57.852Z,78.06
2018-04-16T00:51:57.837Z,78.06
2018-04-16T00:52:57.792Z,78.25
2018-04-16T00:53:57.773Z,78.35
2018-04-16T00:54:57.722Z,78.35
2018-04-16T00:55:57.689Z,78.35
2018-04-16T00:56:57.646Z,79.44
2018-04-16T00:57:57.616Z,80.30
2018-04-16T00:58:57.601Z,81.63
2018-04-16T00:59:57.559Z,79.78
2018-04-16T01:00:57.519Z,79.06
2018-04-16T01:01:57.490Z,78.06
2018-04-16T01:02:57.432Z,77.78
2018-04-16T01:03:57.420Z,77.69
2018-04-16T01:04:57.355Z,77.25
2018-04-16T01:05:57.343Z,76.64
2018-04-16T01:06:57.291Z,76.48
2018-04-16T01:07:57.249Z,75.78
2018-04-16T01:08:57.211Z,75.01
2018-04-16T01:09:57.164Z,74.54
2018-04-16T01:10:57.924Z,74.57
2018-04-16T01:11:57.111Z,74.82
2018-04-16T01:12:57.071Z,74.82
2018-04-16T01:13:57.036Z,75.01
2018-04-16T01:14:57.002Z,74.44
2018-04-16T01:15:56.994Z,74.82
2018-04-16T01:16:56.909Z,74.06
2018-04-16T01:17:56.881Z,73.87
2018-04-16T01:18:56.861Z,74.25
2018-04-16T01:19:56.820Z,74.06
2018-04-16T01:20:56.778Z,74.25
2018-04-16T01:21:56.778Z,74.06
2018-04-16T01:22:56.707Z,74.35
2018-04-16T01:23:56.670Z,74.06
2018-04-16T01:24:57.428Z,74.16
2018-04-16T01:25:56.594Z,74.16
2018-04-16T01:26:56.560Z,73.87
2018-04-16T01:27:56.545Z,73.68
2018-04-16T01:28:56.467Z,73.87
2018-04-16T01:29:56.475Z,73.68
2018-04-16T01:30:56.407Z,74.25
2018-04-16T01:31:56.393Z,74.25
2018-04-16T01:32:56.339Z,74.06
2018-04-16T01:33:56.333Z,74.06
2018-04-16T01:34:56.281Z,74.01
2018-04-16T01:35:56.223Z,74.25
2018-04-16T01:36:56.196Z,73.96
2018-04-16T01:37:56.175Z,74.06
2018-04-16T01:38:56.127Z,74.16
2018-04-16T01:39:56.089Z,74.06
2018-04-16T01:40:56.084Z,73.77
2018-04-16T01:41:56.013Z,73.87
2018-04-16T01:42:55.961Z,73.96
2018-04-16T01:43:55.935Z,74.16
2018-04-16T01:44:55.914Z,74.16
2018-04-16T01:45:55.854Z,74.25
2018-04-16T01:46:55.832Z,74.63
2018-04-16T01:47:55.802Z,74.63
2018-04-16T01:48:55.755Z,75.11
2018-04-16T01:49:55.734Z,74.92
2018-04-16T01:50:55.709Z,74.82
2018-04-16T01:51:55.656Z,74.63
2018-04-16T01:52:55.616Z,75.11
2018-04-16T01:53:55.575Z,74.92
2018-04-16T01:54:55.532Z,74.73
2018-04-16T01:55:55.508Z,75.01
2018-04-16T01:56:55.501Z,75.01
2018-04-16T01:57:55.455Z,75.11
2018-04-16T01:58:55.431Z,75.01
2018-04-16T01:59:55.372Z,74.63
2018-04-16T02:00:55.327Z,75.30
2018-04-16T02:01:55.282Z,75.68
2018-04-16T02:02:55.253Z,75.78
2018-04-16T02:03:55.224Z,75.11
2018-04-16T02:04:55.192Z,75.30
2018-04-16T02:05:55.155Z,75.40
2018-04-16T02:06:55.135Z,75.40
2018-04-16T02:07:55.073Z,75.30
2018-04-16T02:08:55.038Z,75.59
2018-04-16T02:09:55.025Z,75.68
2018-04-16T02:10:54.957Z,75.87
2018-04-16T02:11:54.915Z,76.01
2018-04-16T02:12:54.905Z,75.81
2018-04-16T02:13:54.844Z,75.43
2018-04-16T02:14:54.828Z,75.96
2018-04-16T02:15:54.786Z,75.78
2018-04-16T02:16:54.773Z,75.87
2018-04-16T02:17:54.715Z,75.78
2018-04-16T02:18:54.650Z,75.96
2018-04-16T02:19:54.635Z,76.25
2018-04-16T02:20:54.695Z,76.06
2018-04-16T02:21:54.571Z,75.87
2018-04-16T02:22:54.537Z,75.68
2018-04-16T02:23:54.497Z,75.68
2018-04-16T02:24:54.441Z,75.68
2018-04-16T02:25:54.424Z,75.68
2018-04-16T02:26:54.396Z,75.87
2018-04-16T02:27:54.344Z,75.40
2018-04-16T02:28:54.338Z,75.78
2018-04-16T02:29:54.317Z,75.96
2018-04-16T02:30:54.246Z,76.06
2018-04-16T02:31:54.183Z,76.16
2018-04-16T02:32:54.175Z,76.16
2018-04-16T02:33:54.158Z,76.44
2018-04-16T02:34:54.143Z,76.29
2018-04-16T02:35:54.054Z,76.35
2018-04-16T02:36:54.059Z,76.25
2018-04-16T02:37:55.534Z,76.64
2018-04-16T02:38:53.963Z,76.64
2018-04-16T02:39:53.900Z,76.64
2018-04-16T02:40:53.869Z,76.82
2018-04-16T02:41:53.823Z,76.54
2018-04-16T02:42:53.815Z,76.44
2018-04-16T02:43:53.764Z,76.35
2018-04-16T02:44:53.768Z,76.82
2018-04-16T02:45:53.708Z,77.30
2018-04-16T02:46:53.685Z,77.20
2018-04-16T02:47:53.639Z,77.11
2018-04-16T02:48:53.570Z,77.11
2018-04-16T02:49:53.546Z,77.20
2018-04-16T02:50:53.524Z,77.11
2018-04-16T02:51:53.471Z,77.49
2018-04-16T02:52:53.444Z,77.69
2018-04-16T02:53:53.436Z,77.78
2018-04-16T02:54:53.363Z,77.40
2018-04-16T02:55:53.328Z,77.78
2018-04-16T02:56:53.286Z,77.59
2018-04-16T02:57:53.261Z,77.49
2018-04-16T02:58:53.233Z,77.59
2018-04-16T02:59:53.198Z,77.72
2018-04-16T03:00:53.143Z,77.62
2018-04-16T03:01:53.115Z,77.53
2018-04-16T03:02:53.089Z,77.91
2018-04-16T03:03:53.021Z,78.01
2018-04-16T03:04:53.005Z,78.10
2018-04-16T03:05:52.986Z,78.06
2018-04-16T03:06:52.933Z,78.54
2018-04-16T03:07:52.887Z,78.16
2018-04-16T03:08:52.860Z,78.25
2018-04-16T03:09:52.818Z,78.16
2018-04-16T03:10:52.823Z,78.16
2018-04-16T03:11:52.904Z,78.06
2018-04-16T03:12:52.717Z,78.06
2018-04-16T03:13:52.733Z,78.06
2018-04-16T03:14:52.643Z,78.06
2018-04-16T03:15:52.610Z,78.25
2018-04-16T03:16:52.587Z,78.16
2018-04-16T03:17:52.551Z,78.25
2018-04-16T03:18:52.519Z,78.25
2018-04-16T03:19:52.488Z,78.35
2018-04-16T03:20:52.436Z,78.54
2018-04-16T03:21:52.399Z,78.54
2018-04-16T03:22:52.377Z,78.92
2018-04-16T03:23:52.346Z,78.92
2018-04-16T03:24:52.289Z,79.40
2018-04-16T03:25:52.237Z,78.92
2018-04-16T03:26:52.245Z,79.02
2018-04-16T03:27:52.179Z,79.02
2018-04-16T03:28:52.159Z,79.30
2018-04-16T03:29:52.120Z,79.30
2018-04-16T03:30:52.066Z,79.49
2018-04-16T03:31:52.027Z,79.59
2018-04-16T03:32:51.979Z,78.83
2018-04-16T03:33:51.974Z,78.92
2018-04-16T03:34:51.903Z,79.30
2018-04-16T03:35:51.909Z,79.21
2018-04-16T03:36:51.861Z,79.21
2018-04-16T03:37:51.790Z,79.40
2018-04-16T03:38:51.780Z,79.40
2018-04-16T03:39:51.744Z,79.49
2018-04-16T03:40:51.689Z,79.68
2018-04-16T03:41:51.650Z,79.59
2018-04-16T03:42:51.616Z,79.59
2018-04-16T03:43:51.604Z,79.59
2018-04-16T03:44:51.575Z,79.68
2018-04-16T03:45:51.521Z,79.78
2018-04-16T03:46:51.488Z,79.40
2018-04-16T03:47:51.615Z,79.68
2018-04-16T03:48:51.447Z,79.59
2018-04-16T03:49:51.373Z,79.68
2018-04-16T03:50:51.351Z,79.88
2018-04-16T03:51:51.333Z,80.07
2018-04-16T03:52:51.272Z,80.16
2018-04-16T03:53:51.212Z,79.78
2018-04-16T03:54:51.181Z,80.20
2018-04-16T03:55:51.181Z,80.26
2018-04-16T03:56:51.124Z,80.11
2018-04-16T03:57:51.095Z,80.30
2018-04-16T03:58:51.039Z,80.20
2018-04-16T03:59:50.994Z,80.20
2018-04-16T04:00:50.971Z,80.20
2018-04-16T04:01:50.954Z,80.87
2018-04-16T04:02:50.909Z,80.20
2018-04-16T04:03:50.862Z,80.58
2018-04-16T04:04:50.815Z,80.49
2018-04-16T04:05:50.778Z,80.39
2018-04-16T04:06:50.741Z,80.68
2018-04-16T04:07:50.714Z,80.68
2018-04-16T04:08:50.694Z,80.49
2018-04-16T04:09:50.671Z,80.68
2018-04-16T04:10:50.613Z,80.58
2018-04-16T04:11:50.585Z,80.87
2018-04-16T04:12:50.523Z,80.77
2018-04-16T04:13:50.495Z,80.68
2018-04-16T04:14:50.466Z,80.68
2018-04-16T04:15:50.416Z,80.58
2018-04-16T04:16:50.389Z,80.49
2018-04-16T04:17:50.357Z,81.15
2018-04-16T04:18:50.323Z,80.68
2018-04-16T04:19:50.305Z,80.87
2018-04-16T04:20:50.244Z,80.58
2018-04-16T04:21:50.210Z,80.83
2018-04-16T04:22:50.167Z,80.87
2018-04-16T04:23:50.137Z,81.12
2018-04-16T04:24:50.138Z,80.96
2018-04-16T04:25:50.180Z,81.15
2018-04-16T04:26:50.008Z,81.54
2018-04-16T04:27:50.139Z,81.35
2018-04-16T04:28:49.969Z,81.44
2018-04-16T04:29:49.943Z,81.25
2018-04-16T04:30:49.932Z,81.25
2018-04-16T04:31:49.845Z,81.40
2018-04-16T04:32:49.829Z,81.40
2018-04-16T04:33:49.795Z,81.54
2018-04-16T04:34:49.762Z,81.59
2018-04-16T04:35:49.696Z,81.59
2018-04-16T04:36:49.697Z,81.59
2018-04-16T04:37:49.655Z,81.49
2018-04-16T04:38:49.601Z,81.44
2018-04-16T04:39:49.547Z,81.59
2018-04-16T04:40:49.524Z,81.78
2018-04-16T04:41:49.483Z,81.25
2018-04-16T04:42:49.453Z,81.44
2018-04-16T04:43:49.407Z,81.25
2018-04-16T04:44:49.393Z,81.44
2018-04-16T04:45:49.351Z,81.25
2018-04-16T04:46:49.304Z,81.54
2018-04-16T04:47:49.266Z,81.63
2018-04-16T04:48:49.233Z,81.82
2018-04-16T04:49:49.211Z,82.11
2018-04-16T04:50:49.142Z,82.01
2018-04-16T04:51:49.160Z,82.59
2018-04-16T04:52:49.083Z,82.11
2018-04-16T04:53:49.039Z,82.26
2018-04-16T04:54:49.028Z,81.82
2018-04-16T04:55:48.954Z,81.73
2018-04-16T04:56:48.927Z,81.92
2018-04-16T04:57:48.876Z,81.92
2018-04-16T04:58:48.963Z,82.01
2018-04-16T04:59:48.828Z,82.20
2018-04-16T05:00:48.793Z,82.11
2018-04-16T05:01:48.748Z,82.20
2018-04-16T05:02:48.788Z,82.20
2018-04-16T05:03:48.713Z,82.30
2018-04-16T05:04:48.672Z,82.11
2018-04-16T05:05:48.607Z,82.20
2018-04-16T05:06:48.577Z,82.40
2018-04-16T05:07:48.519Z,82.01
2018-04-16T05:08:48.511Z,82.40
2018-04-16T05:09:48.509Z,82.49
2018-04-16T05:10:48.449Z,82.30
2018-04-16T05:11:48.435Z,82.40
2018-04-16T05:12:48.365Z,82.40
2018-04-16T05:13:48.325Z,82.40
2018-04-16T05:14:48.286Z,82.40
2018-04-16T05:15:48.265Z,82.20
2018-04-16T05:16:48.270Z,82.30
2018-04-16T05:17:48.246Z,82.49
2018-04-16T05:18:48.189Z,82.01
2018-04-16T05:19:48.109Z,82.20
2018-04-16T05:20:48.077Z,82.20
2018-04-16T05:21:48.012Z,82.20
2018-04-16T05:22:47.980Z,82.40
2018-04-16T05:23:47.953Z,82.40
2018-04-16T05:24:47.924Z,82.49
2018-04-16T05:25:47.899Z,82.40
2018-04-16T05:26:47.867Z,82.49
2018-04-16T05:27:47.811Z,82.30
2018-04-16T05:28:47.776Z,82.49
2018-04-16T05:29:47.748Z,82.49
2018-04-16T05:30:47.715Z,82.30
2018-04-16T05:31:47.704Z,82.11
2018-04-16T05:32:47.648Z,82.68
2018-04-16T05:33:47.615Z,82.30
2018-04-16T05:34:47.595Z,82.30
2018-04-16T05:35:47.527Z,82.40
2018-04-16T05:36:47.472Z,82.59
2018-04-16T05:37:47.470Z,82.20
2018-04-16T05:38:47.415Z,82.30
2018-04-16T05:39:47.413Z,82.20
2018-04-16T05:40:47.328Z,82.30
2018-04-16T05:41:47.309Z,82.59
2018-04-16T05:42:47.337Z,82.20
2018-04-16T05:43:47.257Z,82.30
2018-04-16T05:44:47.239Z,81.92
2018-04-16T05:45:47.150Z,82.30
2018-04-16T05:46:47.122Z,81.82
2018-04-16T05:47:47.123Z,81.82
2018-04-16T05:48:47.054Z,81.92
2018-04-16T05:49:47.018Z,82.11
2018-04-16T05:50:46.976Z,81.15
2018-04-16T05:51:46.985Z,81.63
2018-04-16T05:52:46.907Z,81.25
2018-04-16T05:53:46.890Z,81.44
2018-04-16T05:54:46.838Z,81.44
2018-04-16T05:55:46.808Z,81.44
2018-04-16T05:56:46.824Z,80.96
2018-04-16T05:57:46.743Z,80.68
2018-04-16T05:58:46.691Z,81.10
2018-04-16T05:59:46.653Z,81.10
2018-04-16T06:00:46.651Z,81.20
2018-04-16T06:01:46.576Z,81.15
2018-04-16T06:02:46.539Z,80.62
2018-04-16T06:03:46.584Z,80.81
2018-04-16T06:04:46.500Z,80.53
2018-04-16T06:05:46.470Z,80.62
2018-04-16T06:06:46.442Z,80.33
2018-04-16T06:07:46.380Z,80.05
2018-04-16T06:08:46.322Z,80.05
2018-04-16T06:09:46.314Z,80.24
2018-04-16T06:10:46.263Z,80.33
2018-04-16T06:11:46.241Z,79.96
2018-04-16T06:12:46.187Z,79.96
2018-04-16T06:13:46.172Z,79.86
2018-04-16T06:14:46.149Z,79.86
2018-04-16T06:15:46.090Z,79.86
2018-04-16T06:16:46.057Z,79.28
2018-04-16T06:17:46.018Z,79.10
2018-04-16T06:18:46.002Z,79.19
2018-04-16T06:19:45.946Z,78.91
2018-04-16T06:20:45.953Z,78.52
2018-04-16T06:21:45.873Z,78.72
2018-04-16T06:22:45.883Z,78.43
2018-04-16T06:23:45.784Z,78.14
2018-04-16T06:24:45.756Z,78.14
2018-04-16T06:25:45.724Z,77.67
2018-04-16T06:26:45.681Z,77.28
2018-04-16T06:27:45.653Z,77.38
2018-04-16T06:28:45.632Z,76.90
2018-04-16T06:29:45.569Z,77.19
2018-04-16T06:30:45.569Z,77.00
2018-04-16T06:31:45.513Z,76.71
2018-04-16T06:32:45.485Z,76.90
2018-04-16T06:33:45.457Z,75.85
2018-04-16T06:34:45.405Z,76.04
2018-04-16T06:35:45.351Z,75.79
2018-04-16T06:36:45.343Z,75.60
2018-04-16T06:37:45.286Z,75.22
2018-04-16T06:38:45.307Z,75.13
2018-04-16T06:39:45.247Z,74.74
2018-04-16T06:40:45.211Z,74.17
2018-04-16T06:41:45.200Z,74.17
2018-04-16T06:42:45.174Z,74.55
2018-04-16T06:43:45.071Z,73.60
2018-04-16T06:44:45.058Z,73.69
2018-04-16T06:45:45.016Z,73.88
2018-04-16T06:46:44.994Z,73.98
2018-04-16T06:47:44.951Z,73.50
2018-04-16T06:48:44.895Z,73.50
2018-04-16T06:49:44.876Z,73.32
2018-04-16T06:50:44.826Z,73.32
2018-04-16T06:51:44.812Z,73.50
2018-04-16T06:52:44.789Z,73.41
2018-04-16T06:53:44.816Z,73.60
2018-04-16T06:54:44.743Z,73.25
2018-04-16T06:55:44.693Z,73.35
2018-04-16T06:56:44.648Z,74.46
2018-04-16T06:57:44.599Z,74.40
2018-04-16T06:58:44.570Z,73.35
2018-04-16T06:59:44.565Z,73.07
2018-04-16T07:00:44.512Z,73.54
2018-04-16T07:01:44.463Z,74.59
2018-04-16T07:02:44.404Z,74.49
2018-04-16T07:03:44.377Z,75.16
2018-04-16T07:04:44.339Z,74.49
2018-04-16T07:05:44.325Z,75.16
2018-04-16T07:06:44.276Z,76.69
2018-04-16T07:07:44.283Z,76.98
2018-04-16T07:08:44.224Z,76.50
2018-04-16T07:09:44.167Z,76.60
2018-04-16T07:10:44.149Z,78.45
2018-04-16T07:11:44.101Z,80.22
2018-04-16T07:12:44.078Z,80.17
2018-04-16T07:13:44.058Z,78.45
2018-04-16T07:14:44.008Z,81.22
2018-04-16T07:15:44.017Z,81.22
2018-04-16T07:16:43.931Z,81.22
2018-04-16T07:17:43.902Z,83.33
2018-04-16T07:18:43.870Z,82.28
2018-04-16T07:19:43.813Z,81.55
2018-04-16T07:20:43.820Z,84.66
2018-04-16T07:21:43.771Z,83.75
2018-04-16T07:22:43.738Z,83.80
2018-04-16T07:23:43.682Z,83.23
2018-04-16T07:24:43.682Z,82.12
2018-04-16T07:25:43.619Z,82.60
2018-04-16T07:26:43.569Z,84.95
2018-04-16T07:27:43.592Z,82.08
2018-04-16T07:28:43.530Z,81.89
2018-04-16T07:29:43.477Z,80.21
2018-04-16T07:30:43.503Z,80.02
2018-04-16T07:31:43.455Z,80.40
2018-04-16T07:32:43.378Z,82.54
2018-04-16T07:33:43.341Z,83.79
2018-04-16T07:34:43.347Z,89.05
2018-04-16T07:35:43.302Z,93.21
2018-04-16T07:36:43.232Z,89.01
2018-04-16T07:37:43.236Z,86.23
2018-04-16T07:38:43.172Z,87.95
2018-04-16T07:39:43.166Z,83.37
2018-04-16T07:40:44.614Z,85.75
2018-04-16T07:41:43.107Z,85.32
2018-04-16T07:42:43.065Z,88.53
2018-04-16T07:43:43.027Z,89.77
2018-04-16T07:44:42.996Z,88.24
2018-04-16T07:45:42.949Z,87.86
2018-04-16T07:46:42.968Z,90.16
2018-04-16T07:47:42.872Z,89.96
2018-04-16T07:48:42.846Z,86.52
2018-04-16T07:49:42.853Z,81.07
2018-04-16T07:50:42.779Z,82.22
2018-04-16T07:51:42.739Z,79.73
2018-04-16T07:52:42.703Z,80.11
2018-04-16T07:53:42.679Z,81.16
2018-04-16T07:54:42.789Z,79.83
2018-04-16T07:55:42.614Z,77.63
2018-04-16T07:56:42.609Z,82.22
2018-04-16T07:57:42.565Z,76.35
2018-04-16T07:58:42.518Z,75.05
2018-04-16T07:59:42.499Z,73.04
2018-04-16T08:00:42.461Z,71.99
2018-04-16T08:01:42.416Z,72.56
2018-04-16T08:02:42.400Z,73.23
2018-04-16T08:03:42.355Z,72.37
2018-04-16T08:04:42.304Z,73.14
2018-04-16T08:05:42.291Z,78.07
2018-04-16T08:06:42.324Z,77.53
2018-04-16T08:07:42.203Z,77.44
2018-04-16T08:08:42.187Z,80.02
2018-04-16T08:09:42.151Z,78.78
2018-04-16T08:10:42.112Z,79.25
2018-04-16T08:11:42.068Z,76.39
2018-04-16T08:12:42.090Z,81.16
2018-04-16T08:13:42.029Z,76.67
2018-04-16T08:14:41.987Z,83.27
2018-04-16T08:15:42.011Z,86.57
2018-04-16T08:16:41.913Z,91.35
2018-04-16T08:17:41.911Z,94.41
2018-04-16T08:18:41.849Z,88.34
2018-04-16T08:19:41.799Z,89.62
2018-04-16T08:20:41.780Z,92.11
2018-04-16T08:21:41.765Z,96.42
2018-04-16T08:22:41.708Z,97.28
2018-04-16T08:23:41.683Z,96.22
2018-04-16T08:24:41.637Z,92.30
2018-04-16T08:25:41.660Z,93.55
2018-04-16T08:26:41.579Z,92.88
2018-04-16T08:27:41.536Z,93.45
2018-04-16T08:28:41.536Z,89.91
2018-04-16T08:29:41.486Z,92.78
2018-04-16T08:30:41.475Z,87.33
2018-04-16T08:31:41.418Z,92.69
2018-04-16T08:32:41.390Z,89.91
2018-04-16T08:33:41.365Z,89.29
2018-04-16T08:34:41.309Z,91.77
2018-04-16T08:35:41.290Z,95.36
2018-04-16T08:36:41.256Z,88.13
2018-04-16T08:37:41.276Z,90.96
2018-04-16T08:38:41.194Z,86.08
2018-04-16T08:39:41.232Z,88.76
2018-04-16T08:40:41.120Z,89.48
2018-04-16T08:41:41.110Z,89.67
2018-04-16T08:42:41.076Z,89.62
2018-04-16T08:43:41.027Z,91.73
2018-04-16T08:44:40.996Z,88.67
2018-04-16T08:45:40.975Z,97.08
2018-04-16T08:46:40.950Z,91.92
2018-04-16T08:47:40.872Z,88.95
2018-04-16T08:48:40.872Z,86.08
2018-04-16T08:49:40.845Z,85.66
2018-04-16T08:50:40.798Z,85.99
2018-04-16T08:51:40.758Z,86.94
2018-04-16T08:52:40.722Z,86.57
2018-04-16T08:53:40.716Z,85.41
2018-04-16T08:54:40.674Z,85.80
2018-04-16T08:55:40.627Z,89.43
2018-04-16T08:56:40.636Z,88.23
2018-04-16T08:57:40.551Z,90.30
2018-04-16T08:58:40.524Z,91.68
2018-04-16T08:59:40.542Z,91.68
2018-04-16T09:00:40.486Z,96.80
2018-04-16T09:01:40.429Z,87.04
2018-04-16T09:02:40.385Z,82.17
2018-04-16T09:03:40.360Z,84.27
2018-04-16T09:04:40.336Z,86.41
2018-04-16T09:05:40.307Z,91.16
2018-04-16T09:06:40.275Z,93.07
2018-04-16T09:07:40.230Z,99.99
2018-04-16T09:08:40.194Z,95.94
2018-04-16T09:09:40.182Z,94.21
2018-04-16T09:10:40.128Z,89.53
2018-04-16T09:11:40.110Z,93.07
2018-04-16T09:12:40.062Z,94.21
2018-04-16T09:13:40.026Z,89.95
2018-04-16T09:14:40.012Z,93.12
2018-04-16T09:15:39.989Z,91.11
2018-04-16T09:16:39.929Z,91.39
2018-04-16T09:17:39.890Z,93.02
2018-04-16T09:18:39.887Z,91.92
2018-04-16T09:19:39.842Z,93.12
2018-04-16T09:20:39.808Z,89.09
2018-04-16T09:21:39.761Z,91.77
2018-04-16T09:22:39.767Z,96.84
2018-04-16T09:23:39.715Z,99.99
2018-04-16T09:24:39.670Z,96.22
2018-04-16T09:25:39.664Z,94.31
2018-04-16T09:26:39.604Z,92.16
2018-04-16T09:27:39.644Z,91.49
2018-04-16T09:28:39.581Z,99.15
2018-04-16T09:29:39.519Z,97.85
2018-04-16T09:30:39.486Z,89.81
2018-04-16T09:31:39.461Z,90.34
2018-04-16T09:32:39.441Z,92.63
2018-04-16T09:33:39.391Z,93.26
2018-04-16T09:34:39.376Z,90.05
2018-04-16T09:35:39.351Z,87.37
2018-04-16T09:36:39.316Z,85.36
2018-04-16T09:37:39.284Z,88.33
2018-04-16T09:38:39.227Z,88.37
2018-04-16T09:39:39.197Z,92.16
2018-04-16T09:40:39.178Z,87.85
2018-04-16T09:41:39.130Z,87.90
2018-04-16T09:42:39.096Z,92.83
2018-04-16T09:43:39.080Z,90.87
2018-04-16T09:44:39.073Z,89.19
2018-04-16T09:45:39.041Z,90.82
2018-04-16T09:46:38.955Z,84.98
2018-04-16T09:47:38.999Z,84.65
2018-04-16T09:48:38.911Z,88.57
2018-04-16T09:49:38.957Z,82.64
2018-04-16T09:50:38.843Z,94.21
2018-04-16T09:51:38.817Z,93.74
2018-04-16T09:52:38.920Z,88.76
2018-04-16T09:53:38.767Z,84.27
2018-04-16T09:54:38.702Z,81.34
2018-04-16T09:55:38.700Z,86.22
2018-04-16T09:56:38.652Z,85.94
2018-04-16T09:57:38.634Z,89.90
2018-04-16T09:58:38.568Z,93.50
2018-04-16T09:59:38.571Z,92.54
2018-04-16T10:00:38.534Z,94.26
2018-04-16T10:01:38.499Z,95.84
2018-04-16T10:02:38.443Z,92.88
2018-04-16T10:03:38.423Z,89.19
2018-04-16T10:04:38.408Z,95.65
2018-04-16T10:05:38.355Z,89.58
2018-04-16T10:06:38.378Z,92.25
2018-04-16T10:07:38.309Z,88.04
2018-04-16T10:08:38.264Z,91.87
2018-04-16T10:09:38.226Z,99.99
2018-04-16T10:10:38.208Z,96.47
2018-04-16T10:11:38.168Z,98.47
2018-04-16T10:12:38.109Z,95.89
2018-04-16T10:13:38.098Z,97.13
2018-04-16T10:14:38.069Z,99.99
2018-04-16T10:15:38.109Z,96.27
2018-04-16T10:16:37.981Z,99.99
2018-04-16T10:17:37.962Z,99.99
2018-04-16T10:18:37.932Z,99.99
2018-04-16T10:19:37.913Z,99.99
2018-04-16T10:20:37.863Z,99.99
2018-04-16T10:21:37.860Z,99.99
2018-04-16T10:22:37.826Z,99.99
2018-04-16T10:23:37.774Z,99.99
2018-04-16T10:24:37.740Z,99.99
2018-04-16T10:25:37.708Z,99.99
2018-04-16T10:26:37.677Z,99.99
2018-04-16T10:27:37.633Z,99.99
2018-04-16T10:28:37.657Z,99.99
2018-04-16T10:29:37.610Z,99.99
2018-04-16T10:30:37.562Z,99.99
2018-04-16T10:31:37.504Z,99.99
2018-04-16T10:32:37.517Z,99.99
2018-04-16T10:33:37.486Z,99.99
2018-04-16T10:34:37.436Z,99.99
2018-04-16T10:35:37.384Z,99.99
2018-04-16T10:36:37.375Z,99.99
2018-04-16T10:37:37.319Z,99.99
2018-04-16T10:38:37.283Z,99.99
2018-04-16T10:39:37.243Z,99.99
2018-04-16T10:40:37.232Z,99.99
2018-04-16T10:41:37.182Z,99.99
2018-04-16T10:42:37.200Z,99.99
2018-04-16T10:43:37.143Z,99.99
2018-04-16T10:44:37.123Z,99.99
2018-04-16T10:45:37.076Z,99.99
2018-04-16T10:46:37.041Z,99.99
2018-04-16T10:47:37.016Z,99.99
2018-04-16T10:48:36.985Z,99.99
2018-04-16T10:49:36.953Z,99.99
2018-04-16T10:50:36.917Z,99.99
2018-04-16T10:51:36.883Z,99.99
2018-04-16T10:52:36.877Z,99.99
2018-04-16T10:53:36.856Z,99.99
2018-04-16T10:54:36.790Z,99.99
2018-04-16T10:55:36.790Z,99.99
2018-04-16T10:56:36.751Z,99.99
2018-04-16T10:57:36.755Z,99.99
2018-04-16T10:58:36.662Z,99.99
2018-04-16T10:59:36.636Z,99.99
2018-04-16T11:00:36.632Z,99.99
2018-04-16T11:01:36.585Z,99.99
2018-04-16T11:02:36.563Z,99.99
2018-04-16T11:03:36.521Z,99.99
2018-04-16T11:04:36.499Z,99.99
2018-04-16T11:05:36.466Z,99.99
2018-04-16T11:06:36.471Z,99.99
2018-04-16T11:07:36.434Z,99.99
2018-04-16T11:08:36.365Z,99.99
2018-04-16T11:09:36.338Z,99.99
2018-04-16T11:10:36.293Z,99.99
2018-04-16T11:11:36.285Z,99.99
2018-04-16T11:12:36.247Z,99.99
2018-04-16T11:13:36.223Z,99.99
2018-04-16T11:14:36.197Z,99.99
2018-04-16T11:15:36.160Z,99.99
2018-04-16T11:16:36.156Z,99.99
2018-04-16T11:17:36.117Z,99.99
2018-04-16T11:18:36.093Z,99.99
2018-04-16T11:19:36.034Z,99.99
2018-04-16T11:20:36.007Z,99.99
2018-04-16T11:21:35.972Z,96.22
2018-04-16T11:22:35.958Z,99.38
2018-04-16T11:23:35.918Z,99.99
2018-04-16T11:24:35.915Z,99.99
2018-04-16T11:25:35.833Z,99.99
2018-04-16T11:26:35.800Z,99.99
2018-04-16T11:27:35.790Z,99.99
2018-04-16T11:28:35.762Z,99.99
2018-04-16T11:29:35.706Z,99.99
2018-04-16T11:30:35.696Z,99.99
2018-04-16T11:31:35.672Z,99.99
2018-04-16T11:32:35.633Z,99.99
2018-04-16T11:33:35.636Z,99.99
2018-04-16T11:34:35.574Z,99.99
2018-04-16T11:35:35.547Z,99.99
2018-04-16T11:36:35.529Z,99.99
2018-04-16T11:37:35.489Z,99.99
2018-04-16T11:38:35.458Z,99.99
2018-04-16T11:39:35.403Z,87.13
2018-04-16T11:40:35.391Z,85.41
2018-04-16T11:41:35.349Z,87.99
2018-04-16T11:42:35.341Z,85.27
2018-04-16T11:43:35.307Z,85.75
2018-04-16T11:44:35.269Z,91.25
2018-04-16T11:45:35.330Z,86.17
2018-04-16T11:46:35.183Z,84.16
2018-04-16T11:47:35.178Z,87.51
2018-04-16T11:48:35.166Z,84.83
2018-04-16T11:49:35.105Z,88.09
2018-04-16T11:50:35.087Z,84.64
2018-04-16T11:51:35.048Z,84.16
2018-04-16T11:52:35.029Z,85.02
2018-04-16T11:53:35.629Z,88.18
2018-04-16T11:54:34.923Z,87.03
2018-04-16T11:55:34.914Z,91.05
2018-04-16T11:56:34.901Z,87.23
2018-04-16T11:57:34.943Z,87.27
2018-04-16T11:58:34.821Z,86.69
2018-04-16T11:59:34.777Z,86.50
2018-04-16T12:00:34.761Z,94.64
2018-04-16T12:01:34.728Z,91.77
2018-04-16T12:02:34.702Z,92.35
2018-04-16T12:03:34.682Z,93.30
2018-04-16T12:04:34.627Z,93.59
2018-04-16T12:05:34.626Z,89.28
2018-04-16T12:06:34.558Z,93.59
2018-04-16T12:07:34.575Z,92.06
2018-04-16T12:08:34.543Z,85.64
2018-04-16T12:09:34.512Z,86.41
2018-04-16T12:10:34.486Z,84.92
2018-04-16T12:11:34.400Z,83.01
2018-04-16T12:12:34.360Z,90.43
2018-04-16T12:13:34.342Z,84.30
2018-04-16T12:14:34.310Z,86.88
2018-04-16T12:15:34.267Z,88.95
2018-04-16T12:16:34.288Z,87.61
2018-04-16T12:17:34.231Z,84.11
2018-04-16T12:18:34.189Z,90.86
2018-04-16T12:19:34.177Z,93.93
2018-04-16T12:20:34.127Z,86.79
2018-04-16T12:21:34.632Z,85.06
2018-04-16T12:22:34.042Z,84.20
2018-04-16T12:23:34.042Z,92.15
2018-04-16T12:24:33.982Z,93.59
2018-04-16T12:25:33.948Z,92.25
2018-04-16T12:26:33.928Z,97.33
2018-04-16T12:27:33.905Z,87.08
2018-04-16T12:28:33.884Z,89.95
2018-04-16T12:29:33.839Z,88.70
2018-04-16T12:30:33.787Z,87.94
2018-04-16T12:31:33.774Z,82.38
2018-04-16T12:32:33.734Z,82.09
2018-04-16T12:33:33.709Z,82.15
2018-04-16T12:34:33.690Z,81.10
2018-04-16T12:35:33.654Z,82.53
2018-04-16T12:36:33.617Z,82.06
2018-04-16T12:37:33.580Z,85.31
2018-04-16T12:38:33.564Z,87.32
2018-04-16T12:39:33.511Z,87.41
2018-04-16T12:40:33.479Z,80.38
2018-04-16T12:41:33.453Z,77.36
2018-04-16T12:42:33.414Z,77.94
2018-04-16T12:43:33.381Z,87.90
2018-04-16T12:44:33.391Z,87.51
2018-04-16T12:45:33.309Z,82.63
2018-04-16T12:46:33.272Z,87.90
2018-04-16T12:47:33.236Z,90.44
2018-04-16T12:48:33.222Z,87.61
2018-04-16T12:49:33.197Z,84.88
2018-04-16T12:50:33.168Z,83.64
2018-04-16T12:51:33.125Z,80.10
2018-04-16T12:52:33.099Z,77.33